Time;durP1;ratioP1;P1;durP2;ratioP2;P2;SDS_P1;SDS_P2;PMS_P1;PMS_P2;Temp;Humidity;BMP_temperature;BMP_pressure;BME280_temperature;BME280_humidity;BME280_pressure;Samples;Min_cycle;Max_cycle;Signal;HPM_P1;HPM_P2
2022/11/24 00:00:48;;;;;;;33.53;20.58;;;3.30;81.70;;;;;;5015443;28;20371;-18
2022/11/24 00:03:14;;;;;;;37.40;22.80;;;3.30;82.10;;;;;;5015810;28;20042;-18
2022/11/24 00:05:39;;;;;;;37.28;22.48;;;3.20;82.10;;;;;;5016135;28;20034;-17
2022/11/24 00:08:05;;;;;;;27.63;18.40;;;3.20;82.10;;;;;;5015819;28;20028;-18
2022/11/24 00:10:32;;;;;;;32.72;21.20;;;3.10;82.10;;;;;;5015643;28;20429;-17
2022/11/24 00:12:58;;;;;;;38.30;22.15;;;3.10;82.20;;;;;;5015498;28;20049;-19
2022/11/24 00:15:24;;;;;;;31.85;19.55;;;3.10;82.30;;;;;;5015332;28;20497;-19
2022/11/24 00:17:50;;;;;;;35.13;18.73;;;3.10;82.10;;;;;;5015646;28;20496;-16
2022/11/24 00:20:16;;;;;;;31.13;19.80;;;3.10;82.10;;;;;;5015596;28;20029;-18
2022/11/24 00:22:42;;;;;;;25.63;16.73;;;3.10;82.10;;;;;;5015781;28;20523;-17
2022/11/24 00:25:08;;;;;;;29.60;18.63;;;3.10;82.10;;;;;;5014833;28;20042;-17
2022/11/24 00:27:34;;;;;;;29.65;18.25;;;3.10;82.30;;;;;;5015129;28;20529;-18
2022/11/24 00:30:00;;;;;;;26.55;16.55;;;3.10;82.40;;;;;;5015093;28;20030;-18
2022/11/24 00:32:29;;;;;;;33.22;18.88;;;3.10;82.50;;;;;;5015078;28;20045;-17
2022/11/24 00:34:55;;;;;;;31.80;18.95;;;3.10;82.20;;;;;;5014819;28;20486;-18
2022/11/24 00:37:21;;;;;;;32.08;19.05;;;3.10;82.20;;;;;;5015191;28;20037;-19
2022/11/24 00:39:47;;;;;;;28.98;17.55;;;3.20;82.30;;;;;;5014810;28;20120;-17
2022/11/24 00:42:13;;;;;;;35.42;19.85;;;3.30;82.30;;;;;;5015077;28;20026;-18
2022/11/24 00:44:40;;;;;;;30.52;18.15;;;3.30;82.50;;;;;;5014798;28;20116;-17
2022/11/24 00:47:06;;;;;;;26.98;17.15;;;3.30;82.20;;;;;;5014472;28;20501;-18
2022/11/24 00:49:31;;;;;;;28.02;16.77;;;3.30;82.10;;;;;;5015012;28;20029;-18
2022/11/24 00:51:57;;;;;;;29.17;18.25;;;3.30;82.10;;;;;;5014580;28;20389;-19
2022/11/24 00:54:23;;;;;;;29.67;18.98;;;3.30;82.10;;;;;;5014217;28;20054;-18
2022/11/24 00:56:50;;;;;;;30.38;19.60;;;3.30;82.10;;;;;;5014452;28;20591;-19
2022/11/24 00:59:16;;;;;;;28.33;17.42;;;3.40;82.20;;;;;;5014591;28;20072;-19
2022/11/24 01:01:42;;;;;;;28.13;17.33;;;3.40;82.30;;;;;;5014664;28;20022;-18
2022/11/24 01:04:08;;;;;;;24.65;16.70;;;3.40;82.20;;;;;;5014493;28;20034;-16
2022/11/24 01:06:35;;;;;;;27.45;17.52;;;3.40;82.00;;;;;;5013160;28;20026;-17
2022/11/24 01:09:01;;;;;;;28.17;17.25;;;3.40;82.00;;;;;;5012877;28;20071;-18
2022/11/24 01:12:00;;;;;;;28.30;17.55;;;3.30;82.00;;;;;;5014532;28;20014;-16
2022/11/24 01:14:23;;;;;;;27.23;16.45;;;3.40;82.00;;;;;;5014209;28;20085;-17
2022/11/24 01:16:49;;;;;;;27.02;16.17;;;3.40;82.10;;;;;;5014461;28;20029;-15
2022/11/24 01:19:15;;;;;;;27.55;16.60;;;3.40;82.10;;;;;;5012881;28;20026;-16
2022/11/24 01:21:40;;;;;;;25.05;16.75;;;3.50;82.10;;;;;;5014131;28;20030;-18
2022/11/24 01:24:06;;;;;;;29.33;16.67;;;3.50;82.10;;;;;;5014379;28;20053;-17
2022/11/24 01:26:32;;;;;;;26.52;16.60;;;3.50;81.90;;;;;;4995872;28;20386;-15
2022/11/24 01:28:58;;;;;;;27.27;16.13;;;3.50;81.80;;;;;;5013833;28;20021;-15
2022/11/24 01:31:25;;;;;;;26.42;16.80;;;3.40;81.90;;;;;;5013967;28;20057;-16
2022/11/24 01:33:51;;;;;;;24.25;15.52;;;3.40;82.00;;;;;;5013898;28;20030;-15
2022/11/24 01:36:17;;;;;;;29.10;17.13;;;3.30;81.90;;;;;;5014165;28;20030;-14
2022/11/24 01:38:43;;;;;;;25.23;15.43;;;3.30;82.00;;;;;;5014160;28;20061;-15
2022/11/24 01:41:15;;;;;;;29.35;17.15;;;3.30;82.20;;;;;;5013371;28;20437;-17
2022/11/24 01:43:42;;;;;;;30.27;16.02;;;3.20;82.30;;;;;;5013982;28;20041;-17
2022/11/24 01:46:32;;;;;;;27.92;14.90;;;3.20;82.30;;;;;;5013773;28;20026;-19
2022/11/24 01:49:08;;;;;;;24.85;15.32;;;3.10;82.30;;;;;;5013649;28;20079;-17
2022/11/24 01:51:40;;;;;;;19.80;11.82;;;3.10;82.30;;;;;;5014060;28;20091;-18
2022/11/24 01:54:14;;;;;;;24.33;15.05;;;3.10;82.30;;;;;;5013472;28;20058;-18
2022/11/24 01:56:40;;;;;;;;;;;3.10;82.40;;;;;;5014670;28;20113;-16
2022/11/24 01:59:12;;;;;;;22.55;13.43;;;3.00;82.50;;;;;;5013331;28;19906;-18
2022/11/24 02:01:38;;;;;;;26.55;15.52;;;3.00;82.60;;;;;;5013901;28;20022;-18
2022/11/24 02:04:08;;;;;;;27.88;14.57;;;2.90;82.40;;;;;;5013498;28;20076;-17
2022/11/24 02:06:37;;;;;;;24.45;14.20;;;2.90;82.30;;;;;;5013506;28;20022;-18
2022/11/24 02:09:29;;;;;;;27.08;14.85;;;2.80;82.40;;;;;;5013476;28;20100;-18
2022/11/24 02:11:57;;;;;;;24.67;15.10;;;2.80;82.50;;;;;;5013432;28;20502;-19
2022/11/24 02:14:25;;;;;;;24.75;14.75;;;2.80;82.50;;;;;;5013810;28;20046;-17
2022/11/24 02:16:52;;;;;;;21.15;14.00;;;2.80;82.60;;;;;;5013058;28;20029;-18
2022/11/24 02:19:33;;;;;;;20.95;13.07;;;2.80;82.70;;;;;;5013275;28;20034;-16
2022/11/24 02:22:00;;;;;;;21.67;13.48;;;2.90;82.70;;;;;;5013555;28;20033;-18
2022/11/24 02:24:38;;;;;;;20.08;13.23;;;2.90;83.10;;;;;;5013371;28;20041;-17
2022/11/24 02:27:04;;;;;;;19.15;12.35;;;2.90;83.10;;;;;;5013395;28;20022;-18
2022/11/24 02:29:30;;;;;;;18.13;10.07;;;2.90;82.70;;;;;;5013420;28;20040;-18
2022/11/24 02:32:00;;;;;;;17.88;10.70;;;2.90;82.80;;;;;;5013082;28;20385;-16
2022/11/24 02:34:27;;;;;;;22.60;12.05;;;2.90;82.70;;;;;;5013166;28;20018;-19
2022/11/24 02:36:52;;;;;;;26.08;13.23;;;2.90;82.70;;;;;;5014036;28;20045;-18
2022/11/24 02:39:18;;;;;;;20.65;12.05;;;2.80;82.70;;;;;;5016931;28;20053;-20
2022/11/24 02:41:59;;;;;;;23.25;13.20;;;2.80;82.60;;;;;;5017437;28;20393;-18
2022/11/24 02:44:31;;;;;;;15.45;10.52;;;2.90;82.70;;;;;;5017351;28;20470;-17
2022/11/24 02:47:08;;;;;;;22.75;11.77;;;2.80;82.90;;;;;;5017202;28;20029;-17
2022/11/24 02:49:35;;;;;;;17.52;9.40;;;2.80;82.70;;;;;;5017044;28;20033;-17
2022/11/24 02:52:02;;;;;;;20.08;10.70;;;2.80;82.70;;;;;;5016966;28;20059;-16
2022/11/24 02:54:28;;;;;;;18.15;11.05;;;2.70;82.60;;;;;;5016919;28;20053;-18
2022/11/24 02:56:54;;;;;;;17.40;11.02;;;2.70;82.60;;;;;;5016565;28;20026;-19
2022/11/24 02:59:20;;;;;;;16.63;9.93;;;2.70;82.70;;;;;;5017377;28;20030;-16
2022/11/24 03:01:46;;;;;;;20.10;12.07;;;2.70;82.70;;;;;;5016725;28;20056;-18
2022/11/24 03:04:12;;;;;;;21.65;11.98;;;2.70;82.80;;;;;;5017278;28;20037;-17
2022/11/24 03:06:38;;;;;;;19.95;12.00;;;2.60;82.80;;;;;;5016652;28;20034;-18
2022/11/24 03:09:05;;;;;;;19.77;12.45;;;2.60;82.70;;;;;;5016360;28;20044;-18
2022/11/24 03:11:31;;;;;;;19.35;11.05;;;2.50;82.70;;;;;;5016864;28;20026;-17
2022/11/24 03:13:57;;;;;;;19.55;12.10;;;2.50;82.70;;;;;;5016817;28;20104;-18
2022/11/24 03:16:23;;;;;;;19.73;12.18;;;2.50;82.90;;;;;;5016523;28;20410;-18
2022/11/24 03:18:50;;;;;;;20.30;12.88;;;2.50;83.00;;;;;;5016237;28;20037;-17
2022/11/24 03:21:17;;;;;;;19.42;11.57;;;2.50;82.90;;;;;;5016568;28;20021;-18
2022/11/24 03:23:42;;;;;;;15.02;9.48;;;2.50;82.90;;;;;;5016710;28;20099;-18
2022/11/24 03:26:18;;;;;;;19.60;12.27;;;2.50;83.00;;;;;;5016568;28;20030;-18
2022/11/24 03:28:44;;;;;;;19.42;11.35;;;2.50;82.90;;;;;;5016431;28;20029;-18
2022/11/24 03:31:12;;;;;;;17.35;9.80;;;2.40;82.90;;;;;;5016326;28;20117;-18
2022/11/24 03:33:38;;;;;;;12.63;7.30;;;2.40;83.00;;;;;;5016436;28;20085;-17
2022/11/24 03:36:05;;;;;;;17.40;11.18;;;2.40;82.80;;;;;;5016334;28;20033;-19
2022/11/24 03:38:31;;;;;;;17.05;9.60;;;2.40;83.00;;;;;;5016046;28;20037;-17
2022/11/24 03:40:57;;;;;;;18.83;11.60;;;2.40;82.90;;;;;;5015995;28;20030;-18
2022/11/24 03:43:23;;;;;;;14.60;9.30;;;2.40;83.00;;;;;;5016914;28;20034;-18
2022/11/24 03:45:49;;;;;;;10.77;6.40;;;2.30;83.00;;;;;;5016211;28;20038;-18
2022/11/24 03:48:17;;;;;;;17.42;10.98;;;2.30;82.90;;;;;;5014740;28;20038;-18
2022/11/24 03:50:51;;;;;;;19.48;10.65;;;2.20;82.90;;;;;;5015137;28;20018;-19
2022/11/24 03:53:17;;;;;;;17.33;8.80;;;2.20;82.90;;;;;;5015952;28;20099;-18
2022/11/24 03:55:43;;;;;;;17.90;9.82;;;2.10;82.90;;;;;;5015718;28;20473;-18
2022/11/24 03:58:08;;;;;;;19.80;10.88;;;2.10;83.00;;;;;;5016035;28;20018;-18
2022/11/24 04:00:35;;;;;;;12.63;6.57;;;2.10;83.10;;;;;;5015985;28;20026;-19
2022/11/24 04:03:03;;;;;;;15.98;9.52;;;2.10;83.00;;;;;;5015437;28;20056;-19
2022/11/24 04:05:30;;;;;;;14.48;8.93;;;2.00;83.00;;;;;;5015818;28;20489;-17
2022/11/24 04:07:56;;;;;;;20.33;12.10;;;2.00;83.00;;;;;;5015598;28;20101;-18
2022/11/24 04:10:25;;;;;;;22.48;11.50;;;2.00;83.00;;;;;;5015368;28;20429;-18
2022/11/24 04:12:51;;;;;;;17.88;11.48;;;2.00;83.00;;;;;;5014034;28;20037;-18
2022/11/24 04:15:18;;;;;;;21.58;12.55;;;1.90;83.10;;;;;;5015728;28;20030;-18
2022/11/24 04:17:45;;;;;;;18.27;12.15;;;1.90;83.20;;;;;;5015380;28;20486;-19
2022/11/24 04:20:12;;;;;;;22.98;13.00;;;1.90;83.20;;;;;;5015435;28;20026;-17
2022/11/24 04:22:39;;;;;;;18.15;10.80;;;1.90;83.20;;;;;;5015499;28;20084;-17
2022/11/24 04:25:07;;;;;;;20.55;10.60;;;1.90;83.20;;;;;;5015040;28;20050;-19
2022/11/24 04:27:34;;;;;;;17.40;9.90;;;1.90;83.40;;;;;;5015445;28;20037;-19
2022/11/24 04:30:00;;;;;;;15.88;10.13;;;1.90;83.40;;;;;;5015426;28;20022;-19
2022/11/24 04:32:26;;;;;;;17.42;9.32;;;1.90;83.30;;;;;;5015109;28;20080;-16
2022/11/24 04:34:52;;;;;;;18.90;10.18;;;1.90;83.20;;;;;;5015465;28;20026;-18
2022/11/24 04:37:18;;;;;;;16.80;10.15;;;1.90;83.20;;;;;;5014881;28;20022;-19
2022/11/24 04:39:45;;;;;;;15.40;9.13;;;1.80;83.10;;;;;;5014800;28;20030;-18
2022/11/24 04:42:11;;;;;;;16.38;8.93;;;1.80;83.20;;;;;;5014850;28;20419;-19
2022/11/24 04:44:37;;;;;;;15.95;8.70;;;1.80;83.10;;;;;;5015087;28;20083;-19
2022/11/24 04:47:04;;;;;;;17.38;10.18;;;1.80;83.20;;;;;;5014625;28;20030;-17
2022/11/24 04:49:30;;;;;;;15.30;8.70;;;1.80;83.20;;;;;;5013749;28;20565;-19
2022/11/24 04:51:56;;;;;;;23.08;11.85;;;1.80;83.20;;;;;;5014874;28;20025;-16
2022/11/24 04:54:22;;;;;;;19.63;11.75;;;1.70;83.10;;;;;;5014554;28;20058;-18
2022/11/24 04:56:51;;;;;;;17.20;9.63;;;1.70;83.30;;;;;;5014408;28;20030;-15
2022/11/24 04:59:18;;;;;;;17.95;8.55;;;1.70;83.20;;;;;;5014819;28;20037;-19
2022/11/24 05:01:45;;;;;;;13.32;7.97;;;1.60;83.20;;;;;;5013743;28;20029;-18
2022/11/24 05:04:13;;;;;;;20.05;11.13;;;1.70;83.10;;;;;;5014786;28;20077;-19
2022/11/24 05:06:39;;;;;;;21.60;11.57;;;1.60;83.10;;;;;;5014370;28;20022;-18
2022/11/24 05:09:06;;;;;;;17.80;10.32;;;1.60;83.40;;;;;;5014425;28;20018;-18
2022/11/24 05:11:33;;;;;;;15.68;9.10;;;1.50;83.30;;;;;;5014485;28;20109;-18
2022/11/24 05:13:59;;;;;;;14.63;8.18;;;1.50;83.20;;;;;;5014339;28;20494;-16
2022/11/24 05:16:25;;;;;;;15.38;9.38;;;1.40;83.20;;;;;;5014255;28;20030;-18
2022/11/24 05:18:51;;;;;;;18.52;10.00;;;1.40;83.20;;;;;;5013948;28;20072;-19
2022/11/24 05:21:17;;;;;;;19.48;11.15;;;1.40;83.20;;;;;;5014277;28;20028;-19
2022/11/24 05:23:43;;;;;;;19.00;11.80;;;1.30;83.30;;;;;;5014115;28;20073;-18
2022/11/24 05:26:09;;;;;;;17.92;10.48;;;1.20;83.30;;;;;;5014032;28;20056;-18
2022/11/24 05:28:35;;;;;;;19.17;10.70;;;1.20;83.30;;;;;;5014067;28;20057;-17
2022/11/24 05:31:02;;;;;;;15.48;8.60;;;1.20;83.40;;;;;;5013802;28;20033;-16
2022/11/24 05:33:32;;;;;;;15.65;8.80;;;1.10;83.60;;;;;;5012779;28;20489;-19
2022/11/24 05:36:03;;;;;;;16.98;10.52;;;1.10;83.50;;;;;;5014439;28;20080;-18
2022/11/24 05:38:29;;;;;;;19.27;11.25;;;1.10;83.50;;;;;;5014156;28;20018;-18
2022/11/24 05:41:05;;;;;;;19.40;11.73;;;1.00;83.50;;;;;;5013617;28;20529;-18
2022/11/24 05:43:30;;;;;;;15.13;8.80;;;0.90;83.60;;;;;;5013812;28;20421;-15
2022/11/24 05:46:00;;;;;;;19.27;11.25;;;0.90;83.50;;;;;;5012530;28;20030;-17
2022/11/24 05:48:26;;;;;;;16.88;10.18;;;0.90;83.50;;;;;;5014032;28;20061;-17
2022/11/24 05:50:55;;;;;;;17.25;10.43;;;0.90;83.70;;;;;;5014122;28;20034;-17
2022/11/24 05:53:21;;;;;;;23.52;12.10;;;1.00;83.80;;;;;;5013297;28;20528;-16
2022/11/24 05:55:47;;;;;;;22.17;12.02;;;1.00;83.80;;;;;;5013876;28;20033;-17
2022/11/24 05:58:13;;;;;;;22.63;12.57;;;1.10;83.90;;;;;;5013829;28;20033;-16
2022/11/24 06:00:39;;;;;;;22.35;12.55;;;1.20;84.20;;;;;;5013862;28;20390;-19
2022/11/24 06:03:04;;;;;;;17.45;9.20;;;1.30;84.30;;;;;;5013232;28;20026;-17
2022/11/24 06:05:30;;;;;;;17.35;10.05;;;1.20;84.00;;;;;;5013562;28;20041;-19
2022/11/24 06:07:59;;;;;;;21.83;10.40;;;1.20;83.80;;;;;;5013506;28;20037;-18
2022/11/24 06:10:25;;;;;;;17.48;10.10;;;1.20;83.80;;;;;;5013570;28;20018;-17
2022/11/24 06:12:51;;;;;;;12.65;7.18;;;1.10;83.80;;;;;;5013139;28;20026;-16
2022/11/24 06:15:17;;;;;;;14.32;8.52;;;1.10;83.70;;;;;;5013885;28;20026;-18
2022/11/24 06:17:43;;;;;;;16.35;9.23;;;1.10;83.70;;;;;;5013511;28;20036;-16
2022/11/24 06:20:10;;;;;;;14.77;8.65;;;1.10;83.60;;;;;;5013536;28;20038;-15
2022/11/24 06:22:36;;;;;;;14.45;9.50;;;1.10;83.60;;;;;;5013172;28;20041;-16
2022/11/24 06:25:04;;;;;;;17.70;10.10;;;1.10;83.60;;;;;;5012924;28;20486;-15
2022/11/24 06:27:31;;;;;;;25.90;10.93;;;1.10;83.70;;;;;;5013183;28;20053;-15
2022/11/24 06:29:57;;;;;;;17.92;10.05;;;1.20;83.60;;;;;;5013190;28;20038;-16
2022/11/24 06:32:23;;;;;;;19.55;10.52;;;1.20;83.80;;;;;;5013142;28;20503;-18
2022/11/24 06:34:49;;;;;;;17.65;10.43;;;1.10;83.70;;;;;;5012956;28;20021;-16
2022/11/24 06:37:15;;;;;;;18.55;10.63;;;1.20;83.50;;;;;;5013470;28;20030;-17
2022/11/24 06:39:41;;;;;;;22.08;10.43;;;1.20;83.60;;;;;;5012986;28;20034;-17
2022/11/24 06:42:07;;;;;;;18.73;10.07;;;1.20;83.60;;;;;;5013266;28;20381;-17
2022/11/24 06:44:33;;;;;;;17.60;9.13;;;1.20;83.70;;;;;;5013361;28;20041;-17
2022/11/24 06:46:59;;;;;;;18.33;9.82;;;1.30;83.60;;;;;;5013242;28;20025;-17
2022/11/24 06:49:25;;;;;;;18.23;9.55;;;1.40;83.70;;;;;;5013760;28;20044;-16
2022/11/24 06:51:53;;;;;;;19.52;10.90;;;1.40;83.70;;;;;;5012985;28;20400;-18
2022/11/24 06:54:22;;;;;;;25.10;12.35;;;1.50;83.60;;;;;;5013005;28;20069;-17
2022/11/24 06:56:48;;;;;;;21.20;11.98;;;1.60;83.60;;;;;;5012763;28;20026;-18
2022/11/24 06:59:19;;;;;;;22.15;12.07;;;1.70;83.60;;;;;;5012896;28;20076;-18
2022/11/24 07:01:45;;;;;;;20.25;11.52;;;1.80;83.40;;;;;;5013078;28;20065;-15
2022/11/24 07:04:11;;;;;;;18.17;11.50;;;1.90;83.50;;;;;;5013146;28;20048;-20
2022/11/24 07:06:40;;;;;;;17.77;8.07;;;2.00;83.50;;;;;;5012923;28;20026;-16
2022/11/24 07:09:10;;;;;;;24.55;10.45;;;2.20;83.40;;;;;;5012634;28;20034;-18
2022/11/24 07:11:37;;;;;;;17.15;9.25;;;2.30;83.40;;;;;;5011494;28;20029;-17
2022/11/24 07:14:04;;;;;;;28.60;13.75;;;2.40;83.30;;;;;;5013127;28;20096;-18
2022/11/24 07:16:30;;;;;;;28.20;15.32;;;2.50;83.30;;;;;;5013055;28;20081;-16
2022/11/24 07:18:57;;;;;;;19.77;11.70;;;2.60;83.80;;;;;;5011580;28;20129;-16
2022/11/24 07:21:24;;;;;;;19.92;11.98;;;2.70;83.30;;;;;;5012936;28;20022;-18
2022/11/24 07:23:52;;;;;;;24.58;11.88;;;2.90;83.10;;;;;;5012973;28;20030;-16
2022/11/24 07:26:18;;;;;;;23.98;13.45;;;2.90;82.80;;;;;;5016043;28;20030;-17
2022/11/24 07:28:45;;;;;;;22.65;12.02;;;2.90;82.60;;;;;;5016602;28;20100;-15
2022/11/24 07:31:17;;;;;;;23.40;13.15;;;2.90;82.60;;;;;;5017110;28;20036;-16
2022/11/24 07:33:51;;;;;;;32.13;19.35;;;3.00;82.50;;;;;;5016283;28;20032;-17
2022/11/24 07:36:18;;;;;;;23.60;13.63;;;3.00;82.50;;;;;;5016212;28;20053;-17
2022/11/24 07:38:44;;;;;;;23.45;13.35;;;3.10;82.50;;;;;;5016472;28;20034;-17
2022/11/24 07:41:12;;;;;;;23.40;13.80;;;3.10;82.60;;;;;;5016103;28;20037;-17
2022/11/24 07:43:39;;;;;;;28.58;15.65;;;3.20;82.10;;;;;;5016088;28;20489;-16
2022/11/24 07:46:09;;;;;;;30.75;15.75;;;3.30;82.10;;;;;;5016774;28;20037;-17
2022/11/24 07:48:34;;;;;;;26.63;15.18;;;3.40;82.10;;;;;;5015900;28;20025;-17
2022/11/24 07:51:03;;;;;;;27.00;15.68;;;3.40;81.90;;;;;;5015641;28;20129;-17
2022/11/24 07:53:30;;;;;;;26.73;14.32;;;3.50;82.00;;;;;;5015593;28;20057;-16
2022/11/24 07:55:59;;;;;;;28.88;14.32;;;3.60;82.30;;;;;;5015664;28;20033;-17
2022/11/24 07:58:30;;;;;;;25.05;14.90;;;3.70;82.20;;;;;;5015717;28;20069;-15
2022/11/24 08:00:56;;;;;;;23.77;14.75;;;3.80;81.90;;;;;;5015811;28;20025;-17
2022/11/24 08:03:24;;;;;;;26.83;14.15;;;3.90;81.90;;;;;;5015723;28;20034;-17
2022/11/24 08:05:57;;;;;;;24.15;15.00;;;4.00;81.80;;;;;;5015526;28;20474;-16
2022/11/24 08:08:23;;;;;;;25.50;15.43;;;4.10;81.70;;;;;;5015527;28;20474;-17
2022/11/24 08:10:50;;;;;;;28.17;14.93;;;4.20;81.80;;;;;;5015206;28;20029;-17
2022/11/24 08:13:17;;;;;;;25.05;15.13;;;4.30;81.70;;;;;;5015375;28;20057;-17
2022/11/24 08:15:43;;;;;;;22.10;13.15;;;4.40;81.80;;;;;;5015842;28;20026;-17
2022/11/24 08:18:10;;;;;;;22.33;13.23;;;4.50;81.80;;;;;;5015620;28;20076;-16
2022/11/24 08:20:37;;;;;;;18.27;11.85;;;4.70;81.70;;;;;;5015210;28;20034;-16
2022/11/24 08:23:03;;;;;;;22.15;11.48;;;4.80;81.70;;;;;;5014833;28;20030;-17
2022/11/24 08:25:31;;;;;;;22.42;12.75;;;4.90;81.60;;;;;;5015084;28;20026;-17
2022/11/24 08:28:01;;;;;;;17.13;10.20;;;5.20;82.20;;;;;;5015055;28;20026;-18
2022/11/24 08:30:28;;;;;;;15.85;10.40;;;5.40;81.50;;;;;;5015544;28;20025;-17
2022/11/24 08:32:54;;;;;;;20.70;10.82;;;5.50;80.20;;;;;;5014912;28;20101;-17
2022/11/24 08:35:20;;;;;;;18.42;11.13;;;5.70;80.30;;;;;;5015108;28;20033;-17
2022/11/24 08:37:46;;;;;;;18.58;10.95;;;5.90;80.10;;;;;;5015157;28;20041;-17
2022/11/24 08:40:12;;;;;;;17.25;10.48;;;6.20;80.30;;;;;;5014804;28;20026;-19
2022/11/24 08:42:38;;;;;;;17.20;10.15;;;6.40;79.80;;;;;;5014757;28;20532;-17
2022/11/24 08:45:05;;;;;;;19.17;12.45;;;6.70;79.50;;;;;;5014902;28;20486;-17
2022/11/24 08:47:31;;;;;;;19.02;11.40;;;6.90;79.30;;;;;;5015378;28;20042;-17
2022/11/24 08:49:57;;;;;;;19.75;11.45;;;7.20;79.10;;;;;;5014765;28;20033;-17
2022/11/24 08:52:23;;;;;;;18.85;11.15;;;7.40;78.70;;;;;;5014592;28;20037;-16
2022/11/24 08:54:49;;;;;;;17.10;11.30;;;7.60;78.70;;;;;;5014348;28;20038;-19
2022/11/24 08:57:15;;;;;;;16.67;10.80;;;7.90;78.80;;;;;;5014870;28;20592;-18
2022/11/24 08:59:41;;;;;;;19.02;10.85;;;8.10;77.70;;;;;;5014748;28;20040;-17
2022/11/24 09:02:11;;;;;;;18.20;11.18;;;8.40;78.10;;;;;;5014385;28;20025;-17
2022/11/24 09:04:38;;;;;;;20.42;10.68;;;8.60;78.20;;;;;;5014799;28;20034;-17
2022/11/24 09:07:04;;;;;;;18.58;9.98;;;8.90;77.80;;;;;;5014428;28;20029;-17
2022/11/24 09:09:30;;;;;;;17.40;11.25;;;9.10;77.40;;;;;;5014352;28;20018;-18
2022/11/24 09:11:56;;;;;;;19.73;10.60;;;9.30;77.50;;;;;;5014563;28;20029;-16
2022/11/24 09:14:22;;;;;;;17.77;10.18;;;9.50;77.20;;;;;;5014442;28;20017;-18
2022/11/24 09:16:48;;;;;;;17.08;10.45;;;9.70;77.30;;;;;;5014057;28;20072;-18
2022/11/24 09:19:14;;;;;;;15.85;9.77;;;9.90;77.10;;;;;;5014167;28;20021;-17
2022/11/24 09:21:40;;;;;;;16.52;10.07;;;10.20;76.90;;;;;;5014359;28;20101;-16
2022/11/24 09:24:06;;;;;;;17.65;10.60;;;10.40;75.90;;;;;;5014709;28;20026;-15
2022/11/24 09:26:35;;;;;;;15.90;10.05;;;10.60;76.40;;;;;;5014357;28;20108;-15
2022/11/24 09:29:04;;;;;;;17.58;10.05;;;10.70;75.90;;;;;;5013888;28;20030;-15
2022/11/24 09:31:33;;;;;;;15.45;10.25;;;10.90;75.90;;;;;;5014481;28;20041;-15
2022/11/24 09:34:00;;;;;;;15.63;10.73;;;11.00;75.50;;;;;;5014591;28;20033;-16
2022/11/24 09:36:26;;;;;;;16.55;10.43;;;11.10;75.20;;;;;;5014177;28;20334;-17
2022/11/24 09:38:52;;;;;;;16.33;10.43;;;11.20;75.00;;;;;;5013745;28;20026;-15
2022/11/24 09:41:24;;;;;;;17.83;10.68;;;11.40;75.00;;;;;;5014184;28;20385;-15
2022/11/24 09:44:11;;;;;;;13.68;9.15;;;11.50;75.10;;;;;;5013914;28;20029;-18
2022/11/24 09:47:01;;;;;;;14.65;9.05;;;11.70;74.80;;;;;;5013748;28;20029;-15
2022/11/24 09:49:42;;;;;;;14.68;9.05;;;11.90;74.60;;;;;;5014134;28;20079;-15
2022/11/24 09:52:13;;;;;;;13.38;9.35;;;12.40;74.40;;;;;;5014024;28;20542;-14
2022/11/24 09:54:52;;;;;;;11.52;7.90;;;12.80;73.60;;;;;;5012236;28;20509;-16
2022/11/24 09:57:22;;;;;;;11.45;7.50;;;13.20;71.50;;;;;;5014201;28;20022;-15
2022/11/24 09:59:48;;;;;;;12.20;7.45;;;13.60;72.10;;;;;;5012429;28;20022;-15
2022/11/24 10:02:14;;;;;;;10.25;6.40;;;14.00;71.40;;;;;;5013450;28;20029;-16
2022/11/24 10:04:45;;;;;;;11.82;8.40;;;14.40;70.50;;;;;;5013548;28;20036;-15
2022/11/24 10:07:11;;;;;;;14.43;9.18;;;14.70;69.30;;;;;;5013256;28;20041;-16
2022/11/24 10:10:08;;;;;;;13.27;9.35;;;14.80;68.40;;;;;;5013784;28;20030;-17
2022/11/24 10:13:09;;;;;;;12.60;8.30;;;14.70;67.10;;;;;;5012408;28;20033;-14
2022/11/24 10:15:46;;;;;;;14.95;8.40;;;14.40;66.60;;;;;;5012927;28;20030;-15
2022/11/24 10:18:35;;;;;;;12.20;8.45;;;14.20;66.50;;;;;;5013009;28;20398;-16
2022/11/24 10:21:06;;;;;;;12.68;7.68;;;14.10;66.60;;;;;;5012705;28;20029;-15
2022/11/24 10:23:50;;;;;;;13.25;8.15;;;13.90;65.70;;;;;;5013067;28;20046;-15
2022/11/24 10:26:36;;;;;;;13.65;8.15;;;14.10;66.30;;;;;;5012630;28;20050;-16
2022/11/24 10:29:09;;;;;;;17.33;8.82;;;14.20;65.80;;;;;;5012900;28;20025;-15
2022/11/24 10:31:40;;;;;;;14.40;8.52;;;14.20;64.90;;;;;;5013049;28;20037;-16
2022/11/24 10:34:46;;;;;;;13.23;8.38;;;14.20;64.00;;;;;;5012510;28;20088;-16
2022/11/24 10:37:19;;;;;;;13.20;7.72;;;14.20;63.40;;;;;;5012342;28;20489;-16
2022/11/24 10:39:53;;;;;;;13.30;7.68;;;14.20;63.40;;;;;;5012559;28;20113;-16
2022/11/24 10:42:37;;;;;;;12.25;7.28;;;14.30;63.70;;;;;;5012423;28;20030;-15
2022/11/24 10:45:11;;;;;;;10.85;6.80;;;14.40;62.90;;;;;;5012671;28;20064;-18
2022/11/24 10:47:38;;;;;;;12.40;8.05;;;14.60;61.80;;;;;;5011266;28;20030;-16
2022/11/24 10:50:30;;;;;;;13.18;7.65;;;14.70;62.00;;;;;;5012602;28;20029;-15
2022/11/24 10:53:08;;;;;;;10.98;7.20;;;14.80;60.50;;;;;;5012225;28;20037;-17
2022/11/24 10:55:55;;;;;;;14.43;7.70;;;14.80;59.40;;;;;;5012141;28;20497;-16
2022/11/24 10:58:34;;;;;;;11.32;6.40;;;14.90;58.80;;;;;;5012842;28;20026;-18
2022/11/24 11:01:18;;;;;;;9.95;7.22;;;14.90;59.40;;;;;;5016179;28;20523;-15
2022/11/24 11:03:56;;;;;;;11.80;7.45;;;15.20;58.40;;;;;;5016565;28;20091;-16
2022/11/24 11:06:28;;;;;;;12.52;7.22;;;15.70;57.90;;;;;;5016272;28;20407;-16
2022/11/24 11:09:06;;;;;;;9.75;6.30;;;16.20;57.50;;;;;;5016142;28;20171;-15
2022/11/24 11:11:33;;;;;;;10.88;5.72;;;16.80;56.70;;;;;;5016372;28;20030;-16
2022/11/24 11:14:07;;;;;;;9.63;6.05;;;17.30;56.30;;;;;;5016186;28;20117;-16
2022/11/24 11:16:51;;;;;;;9.98;5.78;;;17.70;55.40;;;;;;5016266;28;20466;-17
2022/11/24 11:19:39;;;;;;;11.90;7.63;;;18.20;54.10;;;;;;5016620;28;20037;-16
2022/11/24 11:22:15;;;;;;;10.05;6.78;;;18.60;53.30;;;;;;5016267;28;20048;-15
2022/11/24 11:24:46;;;;;;;11.25;6.43;;;18.80;51.80;;;;;;5014668;28;20444;-16
2022/11/24 11:27:18;;;;;;;10.07;7.03;;;18.60;51.80;;;;;;5015715;28;20053;-17
2022/11/24 11:29:44;;;;;;;8.52;5.93;;;18.40;48.00;;;;;;5016237;28;20030;-15
2022/11/24 11:32:18;;;;;;;12.20;7.55;;;18.40;50.70;;;;;;5016299;28;20022;-15
2022/11/24 11:34:44;;;;;;;11.90;7.47;;;18.40;48.70;;;;;;5015922;28;20032;-14
2022/11/24 11:37:16;;;;;;;9.77;6.15;;;18.60;51.10;;;;;;5015726;28;20030;-16
2022/11/24 11:39:48;;;;;;;8.13;5.75;;;18.50;51.90;;;;;;5015625;28;20030;-14
2022/11/24 11:42:32;;;;;;;10.52;7.50;;;18.70;51.90;;;;;;5015627;28;20054;-15
2022/11/24 11:45:30;;;;;;;10.50;7.13;;;18.80;51.90;;;;;;5015463;28;20572;-15
2022/11/24 11:48:02;;;;;;;10.55;7.72;;;18.70;49.20;;;;;;5011555;28;20486;-15
2022/11/24 11:50:42;;;;;;;10.23;6.25;;;18.50;51.70;;;;;;5015585;28;20033;-15
2022/11/24 11:53:37;;;;;;;8.02;5.65;;;18.20;52.40;;;;;;5015501;28;20033;-14
2022/11/24 11:56:29;;;;;;;9.40;5.88;;;18.20;52.10;;;;;;5015108;28;20133;-15
2022/11/24 11:59:30;;;;;;;9.77;6.28;;;18.40;52.80;;;;;;5015493;28;20026;-15
2022/11/24 12:02:08;;;;;;;9.82;6.88;;;18.70;52.80;;;;;;5015362;28;20029;-16
2022/11/24 12:04:58;;;;;;;10.50;7.10;;;19.00;51.70;;;;;;5015472;28;20042;-16
2022/11/24 12:07:45;;;;;;;9.13;5.28;;;19.20;46.10;;;;;;5015148;28;20446;-15
2022/11/24 12:10:11;;;;;;;10.18;6.15;;;19.20;50.80;;;;;;5014669;28;20034;-16
2022/11/24 12:12:57;;;;;;;6.32;4.45;;;19.30;50.10;;;;;;5013818;28;20038;-16
2022/11/24 12:15:53;;;;;;;8.52;5.82;;;19.40;50.20;;;;;;4984580;28;20038;-15
2022/11/24 12:18:52;;;;;;;9.65;6.40;;;19.80;50.30;;;;;;5015111;28;20030;-14
2022/11/24 12:21:28;;;;;;;9.27;6.50;;;20.10;46.40;;;;;;5016032;28;20091;-15
2022/11/24 12:24:09;;;;;;;8.82;5.05;;;20.20;46.50;;;;;;5015019;28;20037;-15
2022/11/24 12:27:00;;;;;;;9.52;6.28;;;19.90;46.90;;;;;;5015189;28;20033;-16
2022/11/24 12:29:49;;;;;;;11.93;7.40;;;19.40;47.30;;;;;;5014933;28;20034;-15
2022/11/24 12:32:15;;;;;;;10.10;6.78;;;19.10;47.50;;;;;;5015173;28;20033;-15
2022/11/24 12:35:09;;;;;;;10.13;6.65;;;18.70;49.40;;;;;;5014905;28;20415;-16
2022/11/24 12:38:06;;;;;;;8.93;5.90;;;18.50;49.20;;;;;;5014974;28;20068;-15
2022/11/24 12:40:57;;;;;;;10.43;5.63;;;18.30;48.10;;;;;;5014591;28;20541;-15
2022/11/24 12:43:33;;;;;;;9.15;5.97;;;18.20;48.80;;;;;;5013301;28;20034;-14
2022/11/24 12:46:16;;;;;;;10.43;6.00;;;18.10;48.90;;;;;;5014969;28;20069;-15
2022/11/24 12:49:01;;;;;;;9.52;6.25;;;18.10;48.90;;;;;;5014605;28;20042;-15
2022/11/24 12:51:41;;;;;;;7.38;4.88;;;18.30;48.70;;;;;;5014521;28;20026;-15
2022/11/24 12:54:17;;;;;;;6.93;4.70;;;18.40;48.40;;;;;;5014768;28;20050;-14